sensor_id;sensor_type;location;lat;lon;timestamp;P1;durP1;ratioP1;P2;durP2;ratioP2
28836;SDS011;50669;50.982;11.022;2022-10-17T00:00:33;5.53;;;4.30;;
28836;SDS011;50669;50.982;11.022;2022-10-17T00:03:01;7.07;;;4.95;;
28836;SDS011;50669;50.982;11.022;2022-10-17T00:05:27;6.95;;;4.05;;
28836;SDS011;50669;50.982;11.022;2022-10-17T00:07:53;5.03;;;4.25;;
28836;SDS011;50669;50.982;11.022;2022-10-17T00:10:21;8.27;;;4.50;;
28836;SDS011;50669;50.982;11.022;2022-10-17T00:12:47;4.85;;;4.35;;
28836;SDS011;50669;50.982;11.022;2022-10-17T00:15:17;7.63;;;4.38;;
28836;SDS011;50669;50.982;11.022;2022-10-17T00:17:44;5.70;;;3.92;;
28836;SDS011;50669;50.982;11.022;2022-10-17T00:20:10;5.47;;;3.80;;
28836;SDS011;50669;50.982;11.022;2022-10-17T00:22:36;6.25;;;4.18;;
28836;SDS011;50669;50.982;11.022;2022-10-17T00:25:02;5.60;;;4.25;;
28836;SDS011;50669;50.982;11.022;2022-10-17T00:27:33;4.65;;;4.00;;
28836;SDS011;50669;50.982;11.022;2022-10-17T00:30:00;4.47;;;3.65;;
28836;SDS011;50669;50.982;11.022;2022-10-17T00:32:25;4.93;;;3.90;;
28836;SDS011;50669;50.982;11.022;2022-10-17T00:34:51;5.55;;;3.83;;
28836;SDS011;50669;50.982;11.022;2022-10-17T00:37:16;7.10;;;4.03;;
28836;SDS011;50669;50.982;11.022;2022-10-17T00:39:45;6.65;;;4.60;;
28836;SDS011;50669;50.982;11.022;2022-10-17T00:42:13;5.97;;;4.40;;
28836;SDS011;50669;50.982;11.022;2022-10-17T00:47:12;5.07;;;4.07;;
28836;SDS011;50669;50.982;11.022;2022-10-17T00:49:41;5.35;;;3.80;;
28836;SDS011;50669;50.982;11.022;2022-10-17T00:52:07;5.13;;;3.90;;
28836;SDS011;50669;50.982;11.022;2022-10-17T00:54:38;6.55;;;3.92;;
28836;SDS011;50669;50.982;11.022;2022-10-17T00:57:10;6.47;;;4.20;;
28836;SDS011;50669;50.982;11.022;2022-10-17T00:59:37;4.15;;;3.75;;
28836;SDS011;50669;50.982;11.022;2022-10-17T01:02:06;5.97;;;4.20;;
28836;SDS011;50669;50.982;11.022;2022-10-17T01:04:32;4.85;;;3.47;;
28836;SDS011;50669;50.982;11.022;2022-10-17T01:07:00;5.35;;;3.63;;
28836;SDS011;50669;50.982;11.022;2022-10-17T01:09:28;4.90;;;3.40;;
28836;SDS011;50669;50.982;11.022;2022-10-17T01:31:54;10.52;;;7.55;;
28836;SDS011;50669;50.982;11.022;2022-10-17T01:34:44;6.30;;;4.30;;
28836;SDS011;50669;50.982;11.022;2022-10-17T01:37:39;5.30;;;3.92;;
28836;SDS011;50669;50.982;11.022;2022-10-17T01:43:07;5.40;;;3.63;;
28836;SDS011;50669;50.982;11.022;2022-10-17T01:45:45;4.57;;;3.72;;
28836;SDS011;50669;50.982;11.022;2022-10-17T01:48:19;5.78;;;4.63;;
28836;SDS011;50669;50.982;11.022;2022-10-17T01:53:22;4.43;;;4.00;;
28836;SDS011;50669;50.982;11.022;2022-10-17T01:55:52;6.97;;;4.85;;
28836;SDS011;50669;50.982;11.022;2022-10-17T01:58:39;5.05;;;3.63;;
28836;SDS011;50669;50.982;11.022;2022-10-17T02:01:11;5.85;;;3.67;;
28836;SDS011;50669;50.982;11.022;2022-10-17T02:03:40;9.23;;;4.35;;
28836;SDS011;50669;50.982;11.022;2022-10-17T02:06:09;5.72;;;4.25;;
28836;SDS011;50669;50.982;11.022;2022-10-17T02:08:41;4.82;;;3.80;;
28836;SDS011;50669;50.982;11.022;2022-10-17T02:11:21;4.15;;;3.65;;
28836;SDS011;50669;50.982;11.022;2022-10-17T02:22:20;4.97;;;3.55;;
28836;SDS011;50669;50.982;11.022;2022-10-17T02:25:02;5.13;;;3.67;;
28836;SDS011;50669;50.982;11.022;2022-10-17T02:30:26;5.55;;;3.97;;
28836;SDS011;50669;50.982;11.022;2022-10-17T02:33:03;6.35;;;4.50;;
28836;SDS011;50669;50.982;11.022;2022-10-17T02:35:37;4.97;;;4.45;;
28836;SDS011;50669;50.982;11.022;2022-10-17T02:38:07;6.13;;;4.47;;
28836;SDS011;50669;50.982;11.022;2022-10-17T02:40:36;5.00;;;4.28;;
28836;SDS011;50669;50.982;11.022;2022-10-17T02:43:03;4.97;;;3.90;;
28836;SDS011;50669;50.982;11.022;2022-10-17T02:45:29;6.07;;;4.03;;
28836;SDS011;50669;50.982;11.022;2022-10-17T02:48:03;6.00;;;4.35;;
28836;SDS011;50669;50.982;11.022;2022-10-17T02:50:32;6.05;;;4.22;;
28836;SDS011;50669;50.982;11.022;2022-10-17T02:53:14;6.93;;;5.00;;
28836;SDS011;50669;50.982;11.022;2022-10-17T02:55:55;7.07;;;4.95;;
28836;SDS011;50669;50.982;11.022;2022-10-17T02:58:27;10.70;;;6.07;;
28836;SDS011;50669;50.982;11.022;2022-10-17T03:03:27;9.38;;;5.43;;
28836;SDS011;50669;50.982;11.022;2022-10-17T03:05:55;9.13;;;5.47;;
28836;SDS011;50669;50.982;11.022;2022-10-17T03:08:21;7.78;;;6.05;;
28836;SDS011;50669;50.982;11.022;2022-10-17T03:10:49;6.80;;;5.28;;
28836;SDS011;50669;50.982;11.022;2022-10-17T03:13:15;8.38;;;5.68;;
28836;SDS011;50669;50.982;11.022;2022-10-17T03:15:41;6.50;;;5.80;;
28836;SDS011;50669;50.982;11.022;2022-10-17T03:18:09;7.93;;;6.28;;
28836;SDS011;50669;50.982;11.022;2022-10-17T03:20:35;6.22;;;5.50;;
28836;SDS011;50669;50.982;11.022;2022-10-17T03:23:00;8.18;;;6.35;;
28836;SDS011;50669;50.982;11.022;2022-10-17T03:25:28;13.82;;;6.28;;
28836;SDS011;50669;50.982;11.022;2022-10-17T03:27:56;6.53;;;5.72;;
28836;SDS011;50669;50.982;11.022;2022-10-17T03:30:24;7.68;;;6.00;;
28836;SDS011;50669;50.982;11.022;2022-10-17T03:32:49;6.25;;;5.28;;
28836;SDS011;50669;50.982;11.022;2022-10-17T03:35:15;7.25;;;5.68;;
28836;SDS011;50669;50.982;11.022;2022-10-17T03:37:40;11.90;;;6.30;;
28836;SDS011;50669;50.982;11.022;2022-10-17T03:40:06;8.48;;;5.03;;
28836;SDS011;50669;50.982;11.022;2022-10-17T03:42:37;9.25;;;5.45;;
28836;SDS011;50669;50.982;11.022;2022-10-17T03:45:05;7.97;;;5.57;;
28836;SDS011;50669;50.982;11.022;2022-10-17T03:47:31;11.75;;;5.88;;
28836;SDS011;50669;50.982;11.022;2022-10-17T03:49:56;9.95;;;5.45;;
28836;SDS011;50669;50.982;11.022;2022-10-17T03:52:24;9.57;;;5.13;;
28836;SDS011;50669;50.982;11.022;2022-10-17T03:54:52;7.78;;;4.78;;
28836;SDS011;50669;50.982;11.022;2022-10-17T03:57:20;6.43;;;5.28;;
28836;SDS011;50669;50.982;11.022;2022-10-17T03:59:45;7.25;;;5.03;;
28836;SDS011;50669;50.982;11.022;2022-10-17T04:02:11;8.38;;;4.90;;
28836;SDS011;50669;50.982;11.022;2022-10-17T04:04:37;7.00;;;5.60;;
28836;SDS011;50669;50.982;11.022;2022-10-17T04:07:02;10.85;;;5.15;;
28836;SDS011;50669;50.982;11.022;2022-10-17T04:09:30;9.98;;;4.85;;
28836;SDS011;50669;50.982;11.022;2022-10-17T04:11:56;8.95;;;5.43;;
28836;SDS011;50669;50.982;11.022;2022-10-17T04:14:21;5.85;;;4.68;;
28836;SDS011;50669;50.982;11.022;2022-10-17T04:16:49;8.10;;;4.40;;
28836;SDS011;50669;50.982;11.022;2022-10-17T04:19:15;7.13;;;3.90;;
28836;SDS011;50669;50.982;11.022;2022-10-17T04:21:40;9.48;;;5.57;;
28836;SDS011;50669;50.982;11.022;2022-10-17T04:24:07;7.63;;;4.68;;
28836;SDS011;50669;50.982;11.022;2022-10-17T04:26:35;10.93;;;4.93;;
28836;SDS011;50669;50.982;11.022;2022-10-17T04:29:03;8.95;;;4.55;;
28836;SDS011;50669;50.982;11.022;2022-10-17T04:31:29;9.05;;;4.40;;
28836;SDS011;50669;50.982;11.022;2022-10-17T04:33:55;5.55;;;4.00;;
28836;SDS011;50669;50.982;11.022;2022-10-17T04:36:20;10.68;;;4.72;;
28836;SDS011;50669;50.982;11.022;2022-10-17T04:38:48;10.38;;;4.38;;
28836;SDS011;50669;50.982;11.022;2022-10-17T04:41:15;12.80;;;4.07;;
28836;SDS011;50669;50.982;11.022;2022-10-17T04:43:42;8.00;;;4.18;;
28836;SDS011;50669;50.982;11.022;2022-10-17T04:46:08;15.25;;;4.88;;
28836;SDS011;50669;50.982;11.022;2022-10-17T04:48:36;15.63;;;5.57;;
28836;SDS011;50669;50.982;11.022;2022-10-17T04:51:03;14.00;;;4.75;;
28836;SDS011;50669;50.982;11.022;2022-10-17T04:53:34;10.88;;;5.35;;
28836;SDS011;50669;50.982;11.022;2022-10-17T04:56:11;13.23;;;4.68;;
28836;SDS011;50669;50.982;11.022;2022-10-17T04:58:41;7.68;;;4.40;;
28836;SDS011;50669;50.982;11.022;2022-10-17T05:01:11;13.68;;;4.80;;
28836;SDS011;50669;50.982;11.022;2022-10-17T05:03:39;21.63;;;6.28;;
28836;SDS011;50669;50.982;11.022;2022-10-17T05:06:05;10.38;;;5.57;;
28836;SDS011;50669;50.982;11.022;2022-10-17T05:08:40;12.10;;;4.95;;
28836;SDS011;50669;50.982;11.022;2022-10-17T05:11:15;12.38;;;4.88;;
28836;SDS011;50669;50.982;11.022;2022-10-17T05:13:48;12.73;;;5.03;;
28836;SDS011;50669;50.982;11.022;2022-10-17T05:16:18;13.32;;;4.97;;
28836;SDS011;50669;50.982;11.022;2022-10-17T05:18:50;7.80;;;4.88;;
28836;SDS011;50669;50.982;11.022;2022-10-17T05:21:19;17.13;;;5.55;;
28836;SDS011;50669;50.982;11.022;2022-10-17T05:23:45;20.33;;;5.72;;
28836;SDS011;50669;50.982;11.022;2022-10-17T05:26:11;22.25;;;6.13;;
28836;SDS011;50669;50.982;11.022;2022-10-17T05:28:37;19.98;;;5.85;;
28836;SDS011;50669;50.982;11.022;2022-10-17T05:31:03;21.90;;;6.40;;
28836;SDS011;50669;50.982;11.022;2022-10-17T05:33:30;17.63;;;5.47;;
28836;SDS011;50669;50.982;11.022;2022-10-17T05:35:56;9.32;;;5.32;;
28836;SDS011;50669;50.982;11.022;2022-10-17T05:38:22;9.05;;;4.50;;
28836;SDS011;50669;50.982;11.022;2022-10-17T05:40:48;13.90;;;5.90;;
28836;SDS011;50669;50.982;11.022;2022-10-17T05:43:16;20.85;;;6.90;;
28836;SDS011;50669;50.982;11.022;2022-10-17T05:45:42;24.42;;;7.72;;
28836;SDS011;50669;50.982;11.022;2022-10-17T05:48:13;34.20;;;8.13;;
28836;SDS011;50669;50.982;11.022;2022-10-17T05:50:38;22.30;;;6.70;;
28836;SDS011;50669;50.982;11.022;2022-10-17T05:53:04;18.67;;;6.53;;
28836;SDS011;50669;50.982;11.022;2022-10-17T05:55:30;17.40;;;6.85;;
28836;SDS011;50669;50.982;11.022;2022-10-17T05:57:55;12.07;;;5.25;;
28836;SDS011;50669;50.982;11.022;2022-10-17T06:00:26;12.88;;;6.10;;
28836;SDS011;50669;50.982;11.022;2022-10-17T06:02:56;18.65;;;6.35;;
28836;SDS011;50669;50.982;11.022;2022-10-17T06:05:24;21.40;;;7.50;;
28836;SDS011;50669;50.982;11.022;2022-10-17T06:07:52;15.25;;;5.72;;
28836;SDS011;50669;50.982;11.022;2022-10-17T06:10:20;15.15;;;5.38;;
28836;SDS011;50669;50.982;11.022;2022-10-17T06:12:46;13.40;;;5.85;;
28836;SDS011;50669;50.982;11.022;2022-10-17T06:15:11;14.63;;;5.20;;
28836;SDS011;50669;50.982;11.022;2022-10-17T06:17:37;14.32;;;5.90;;
28836;SDS011;50669;50.982;11.022;2022-10-17T06:20:03;30.52;;;5.68;;
28836;SDS011;50669;50.982;11.022;2022-10-17T06:22:29;21.50;;;5.75;;
28836;SDS011;50669;50.982;11.022;2022-10-17T06:24:54;23.17;;;5.60;;
28836;SDS011;50669;50.982;11.022;2022-10-17T06:27:20;17.02;;;5.90;;
28836;SDS011;50669;50.982;11.022;2022-10-17T06:29:46;16.27;;;5.07;;
28836;SDS011;50669;50.982;11.022;2022-10-17T06:32:12;18.60;;;5.93;;
28836;SDS011;50669;50.982;11.022;2022-10-17T06:34:40;22.75;;;6.07;;
28836;SDS011;50669;50.982;11.022;2022-10-17T06:37:06;19.13;;;6.22;;
28836;SDS011;50669;50.982;11.022;2022-10-17T06:39:33;17.98;;;5.70;;
28836;SDS011;50669;50.982;11.022;2022-10-17T06:42:02;30.75;;;7.20;;
28836;SDS011;50669;50.982;11.022;2022-10-17T06:44:30;30.65;;;7.45;;
28836;SDS011;50669;50.982;11.022;2022-10-17T06:46:58;24.77;;;6.57;;
28836;SDS011;50669;50.982;11.022;2022-10-17T06:49:25;17.98;;;6.50;;
28836;SDS011;50669;50.982;11.022;2022-10-17T06:51:53;22.75;;;7.18;;
28836;SDS011;50669;50.982;11.022;2022-10-17T06:54:19;20.50;;;6.85;;
28836;SDS011;50669;50.982;11.022;2022-10-17T06:56:45;28.30;;;8.57;;
28836;SDS011;50669;50.982;11.022;2022-10-17T06:59:10;17.95;;;7.88;;
28836;SDS011;50669;50.982;11.022;2022-10-17T07:01:36;22.35;;;7.80;;
28836;SDS011;50669;50.982;11.022;2022-10-17T07:04:02;18.77;;;8.65;;
28836;SDS011;50669;50.982;11.022;2022-10-17T07:06:30;37.10;;;9.10;;
28836;SDS011;50669;50.982;11.022;2022-10-17T07:09:01;24.38;;;7.78;;
28836;SDS011;50669;50.982;11.022;2022-10-17T07:11:27;19.65;;;6.88;;
28836;SDS011;50669;50.982;11.022;2022-10-17T07:13:55;25.63;;;7.80;;
28836;SDS011;50669;50.982;11.022;2022-10-17T07:16:21;28.70;;;7.93;;
28836;SDS011;50669;50.982;11.022;2022-10-17T07:18:49;30.63;;;8.95;;
28836;SDS011;50669;50.982;11.022;2022-10-17T07:21:19;45.40;;;10.80;;
28836;SDS011;50669;50.982;11.022;2022-10-17T07:23:45;15.73;;;7.07;;
28836;SDS011;50669;50.982;11.022;2022-10-17T07:26:12;17.08;;;4.80;;
28836;SDS011;50669;50.982;11.022;2022-10-17T07:28:41;10.70;;;4.93;;
28836;SDS011;50669;50.982;11.022;2022-10-17T07:31:09;14.25;;;5.60;;
28836;SDS011;50669;50.982;11.022;2022-10-17T07:33:40;13.75;;;5.68;;
28836;SDS011;50669;50.982;11.022;2022-10-17T07:36:07;12.40;;;5.72;;
28836;SDS011;50669;50.982;11.022;2022-10-17T07:38:35;14.77;;;5.78;;
28836;SDS011;50669;50.982;11.022;2022-10-17T07:41:02;15.00;;;5.97;;
28836;SDS011;50669;50.982;11.022;2022-10-17T07:43:30;24.52;;;7.95;;
28836;SDS011;50669;50.982;11.022;2022-10-17T07:46:00;26.55;;;8.02;;
28836;SDS011;50669;50.982;11.022;2022-10-17T07:48:29;13.73;;;6.82;;
28836;SDS011;50669;50.982;11.022;2022-10-17T07:50:55;20.20;;;6.47;;
28836;SDS011;50669;50.982;11.022;2022-10-17T07:53:21;13.32;;;6.90;;
28836;SDS011;50669;50.982;11.022;2022-10-17T07:55:46;9.90;;;5.97;;
28836;SDS011;50669;50.982;11.022;2022-10-17T07:58:13;26.70;;;7.20;;
28836;SDS011;50669;50.982;11.022;2022-10-17T08:00:39;17.95;;;6.70;;
28836;SDS011;50669;50.982;11.022;2022-10-17T08:03:05;17.58;;;5.90;;
28836;SDS011;50669;50.982;11.022;2022-10-17T08:05:31;14.88;;;5.93;;
28836;SDS011;50669;50.982;11.022;2022-10-17T08:07:59;17.30;;;6.32;;
28836;SDS011;50669;50.982;11.022;2022-10-17T08:10:25;20.98;;;6.55;;
28836;SDS011;50669;50.982;11.022;2022-10-17T08:12:53;11.57;;;5.45;;
28836;SDS011;50669;50.982;11.022;2022-10-17T08:15:20;23.17;;;8.30;;
28836;SDS011;50669;50.982;11.022;2022-10-17T08:17:48;27.38;;;7.43;;
28836;SDS011;50669;50.982;11.022;2022-10-17T08:20:19;20.17;;;7.18;;
28836;SDS011;50669;50.982;11.022;2022-10-17T08:22:50;22.27;;;6.72;;
28836;SDS011;50669;50.982;11.022;2022-10-17T08:25:19;13.10;;;6.53;;
28836;SDS011;50669;50.982;11.022;2022-10-17T08:27:48;11.13;;;5.00;;
28836;SDS011;50669;50.982;11.022;2022-10-17T08:30:13;7.20;;;4.90;;
28836;SDS011;50669;50.982;11.022;2022-10-17T08:32:39;11.73;;;5.28;;
28836;SDS011;50669;50.982;11.022;2022-10-17T08:35:05;5.95;;;4.20;;
28836;SDS011;50669;50.982;11.022;2022-10-17T08:37:31;10.32;;;6.00;;
28836;SDS011;50669;50.982;11.022;2022-10-17T08:39:57;11.73;;;4.90;;
28836;SDS011;50669;50.982;11.022;2022-10-17T08:45:29;11.05;;;5.13;;
28836;SDS011;50669;50.982;11.022;2022-10-17T08:48:00;12.55;;;4.43;;
28836;SDS011;50669;50.982;11.022;2022-10-17T08:53:30;8.82;;;4.85;;
28836;SDS011;50669;50.982;11.022;2022-10-17T08:58:45;9.30;;;4.65;;
28836;SDS011;50669;50.982;11.022;2022-10-17T09:18:47;5.90;;;3.60;;
28836;SDS011;50669;50.982;11.022;2022-10-17T09:24:17;7.57;;;3.10;;
28836;SDS011;50669;50.982;11.022;2022-10-17T09:26:50;7.25;;;3.17;;
28836;SDS011;50669;50.982;11.022;2022-10-17T09:29:19;10.73;;;3.78;;
28836;SDS011;50669;50.982;11.022;2022-10-17T09:32:35;8.10;;;2.70;;
28836;SDS011;50669;50.982;11.022;2022-10-17T09:34:41;6.93;;;3.28;;
28836;SDS011;50669;50.982;11.022;2022-10-17T09:37:12;9.25;;;3.40;;
28836;SDS011;50669;50.982;11.022;2022-10-17T09:39:39;8.88;;;3.08;;
28836;SDS011;50669;50.982;11.022;2022-10-17T09:42:09;18.60;;;3.78;;
28836;SDS011;50669;50.982;11.022;2022-10-17T09:49:47;6.18;;;2.70;;
28836;SDS011;50669;50.982;11.022;2022-10-17T09:57:52;4.03;;;2.20;;
28836;SDS011;50669;50.982;11.022;2022-10-17T10:00:24;10.40;;;3.40;;
28836;SDS011;50669;50.982;11.022;2022-10-17T10:05:36;8.30;;;2.40;;
28836;SDS011;50669;50.982;11.022;2022-10-17T10:08:13;7.28;;;3.05;;
28836;SDS011;50669;50.982;11.022;2022-10-17T10:10:41;4.85;;;2.28;;
28836;SDS011;50669;50.982;11.022;2022-10-17T10:15:40;13.57;;;3.42;;
28836;SDS011;50669;50.982;11.022;2022-10-17T10:18:25;5.28;;;2.00;;
28836;SDS011;50669;50.982;11.022;2022-10-17T10:23:32;4.78;;;2.10;;
28836;SDS011;50669;50.982;11.022;2022-10-17T10:26:03;4.28;;;2.17;;
28836;SDS011;50669;50.982;11.022;2022-10-17T10:28:50;6.35;;;2.60;;
28836;SDS011;50669;50.982;11.022;2022-10-17T10:31:36;6.80;;;2.45;;
28836;SDS011;50669;50.982;11.022;2022-10-17T10:36:54;8.00;;;3.40;;
28836;SDS011;50669;50.982;11.022;2022-10-17T10:45:19;6.97;;;2.85;;
28836;SDS011;50669;50.982;11.022;2022-10-17T10:47:58;5.75;;;1.80;;
28836;SDS011;50669;50.982;11.022;2022-10-17T10:55:46;2.97;;;1.45;;
28836;SDS011;50669;50.982;11.022;2022-10-17T11:00:59;5.13;;;2.20;;
28836;SDS011;50669;50.982;11.022;2022-10-17T11:03:32;6.97;;;2.38;;
28836;SDS011;50669;50.982;11.022;2022-10-17T11:06:10;4.13;;;1.90;;
28836;SDS011;50669;50.982;11.022;2022-10-17T11:08:44;4.60;;;2.40;;
28836;SDS011;50669;50.982;11.022;2022-10-17T11:11:16;5.22;;;2.00;;
28836;SDS011;50669;50.982;11.022;2022-10-17T11:16:39;4.50;;;1.83;;
28836;SDS011;50669;50.982;11.022;2022-10-17T11:19:24;3.72;;;1.85;;
28836;SDS011;50669;50.982;11.022;2022-10-17T11:22:18;3.15;;;1.80;;
28836;SDS011;50669;50.982;11.022;2022-10-17T11:27:28;4.85;;;2.50;;
28836;SDS011;50669;50.982;11.022;2022-10-17T11:29:55;6.93;;;1.95;;
28836;SDS011;50669;50.982;11.022;2022-10-17T11:32:26;4.18;;;1.90;;
28836;SDS011;50669;50.982;11.022;2022-10-17T11:35:00;5.05;;;1.75;;
28836;SDS011;50669;50.982;11.022;2022-10-17T11:37:57;3.67;;;1.90;;
28836;SDS011;50669;50.982;11.022;2022-10-17T11:40:27;2.38;;;1.40;;
28836;SDS011;50669;50.982;11.022;2022-10-17T11:43:02;3.20;;;1.45;;
28836;SDS011;50669;50.982;11.022;2022-10-17T11:45:36;4.10;;;1.60;;
28836;SDS011;50669;50.982;11.022;2022-10-17T11:48:10;4.23;;;1.70;;
28836;SDS011;50669;50.982;11.022;2022-10-17T11:50:42;7.18;;;1.83;;
28836;SDS011;50669;50.982;11.022;2022-10-17T11:53:13;5.47;;;2.00;;
28836;SDS011;50669;50.982;11.022;2022-10-17T11:55:43;4.53;;;1.60;;
28836;SDS011;50669;50.982;11.022;2022-10-17T12:14:09;7.13;;;1.23;;
28836;SDS011;50669;50.982;11.022;2022-10-17T12:16:59;3.72;;;1.40;;
28836;SDS011;50669;50.982;11.022;2022-10-17T12:19:27;4.32;;;1.20;;
28836;SDS011;50669;50.982;11.022;2022-10-17T12:22:02;2.92;;;1.35;;
28836;SDS011;50669;50.982;11.022;2022-10-17T12:32:36;3.33;;;1.35;;
28836;SDS011;50669;50.982;11.022;2022-10-17T12:35:02;4.55;;;1.40;;
28836;SDS011;50669;50.982;11.022;2022-10-17T12:48:39;4.25;;;1.67;;
28836;SDS011;50669;50.982;11.022;2022-10-17T12:56:02;3.92;;;1.40;;
28836;SDS011;50669;50.982;11.022;2022-10-17T12:58:29;4.32;;;1.30;;
28836;SDS011;50669;50.982;11.022;2022-10-17T13:00:55;4.30;;;1.73;;
28836;SDS011;50669;50.982;11.022;2022-10-17T13:03:27;3.10;;;1.42;;
28836;SDS011;50669;50.982;11.022;2022-10-17T13:05:58;6.32;;;2.03;;
28836;SDS011;50669;50.982;11.022;2022-10-17T13:08:30;1.90;;;1.48;;
28836;SDS011;50669;50.982;11.022;2022-10-17T13:10:57;5.20;;;1.60;;
28836;SDS011;50669;50.982;11.022;2022-10-17T13:13:26;3.53;;;1.70;;
28836;SDS011;50669;50.982;11.022;2022-10-17T13:15:58;5.63;;;2.08;;
28836;SDS011;50669;50.982;11.022;2022-10-17T13:18:27;5.05;;;1.90;;
28836;SDS011;50669;50.982;11.022;2022-10-17T13:20:58;5.35;;;1.77;;
28836;SDS011;50669;50.982;11.022;2022-10-17T13:23:29;5.90;;;1.80;;
28836;SDS011;50669;50.982;11.022;2022-10-17T13:28:33;9.38;;;2.25;;
28836;SDS011;50669;50.982;11.022;2022-10-17T13:30:58;7.00;;;2.38;;
28836;SDS011;50669;50.982;11.022;2022-10-17T13:33:34;5.13;;;1.73;;
28836;SDS011;50669;50.982;11.022;2022-10-17T13:36:00;4.82;;;1.70;;
28836;SDS011;50669;50.982;11.022;2022-10-17T13:38:29;3.03;;;2.15;;
28836;SDS011;50669;50.982;11.022;2022-10-17T13:40:56;3.28;;;2.03;;
28836;SDS011;50669;50.982;11.022;2022-10-17T13:43:26;2.92;;;1.50;;
28836;SDS011;50669;50.982;11.022;2022-10-17T13:45:59;3.92;;;1.70;;
28836;SDS011;50669;50.982;11.022;2022-10-17T13:50:55;3.17;;;1.95;;
28836;SDS011;50669;50.982;11.022;2022-10-17T13:56:03;4.20;;;2.22;;
28836;SDS011;50669;50.982;11.022;2022-10-17T13:58:31;6.30;;;1.77;;
28836;SDS011;50669;50.982;11.022;2022-10-17T14:01:03;4.85;;;1.88;;
28836;SDS011;50669;50.982;11.022;2022-10-17T14:03:32;3.00;;;1.70;;
28836;SDS011;50669;50.982;11.022;2022-10-17T14:11:39;2.78;;;1.80;;
28836;SDS011;50669;50.982;11.022;2022-10-17T14:14:44;5.53;;;1.75;;
28836;SDS011;50669;50.982;11.022;2022-10-17T14:17:20;5.10;;;1.90;;
28836;SDS011;50669;50.982;11.022;2022-10-17T14:19:53;2.17;;;1.60;;
28836;SDS011;50669;50.982;11.022;2022-10-17T14:22:27;6.07;;;1.42;;
28836;SDS011;50669;50.982;11.022;2022-10-17T14:24:54;4.25;;;1.50;;
28836;SDS011;50669;50.982;11.022;2022-10-17T14:27:33;2.95;;;1.67;;
28836;SDS011;50669;50.982;11.022;2022-10-17T14:30:06;1.85;;;1.42;;
28836;SDS011;50669;50.982;11.022;2022-10-17T14:32:53;4.22;;;1.70;;
28836;SDS011;50669;50.982;11.022;2022-10-17T14:35:24;3.28;;;1.88;;
28836;SDS011;50669;50.982;11.022;2022-10-17T14:37:50;3.90;;;1.80;;
28836;SDS011;50669;50.982;11.022;2022-10-17T14:40:19;3.83;;;1.70;;
28836;SDS011;50669;50.982;11.022;2022-10-17T14:42:47;4.50;;;1.60;;
28836;SDS011;50669;50.982;11.022;2022-10-17T14:45:34;3.08;;;2.00;;
28836;SDS011;50669;50.982;11.022;2022-10-17T14:48:08;7.43;;;1.73;;
28836;SDS011;50669;50.982;11.022;2022-10-17T14:50:36;3.55;;;1.65;;
28836;SDS011;50669;50.982;11.022;2022-10-17T14:55:30;2.60;;;1.65;;
28836;SDS011;50669;50.982;11.022;2022-10-17T14:57:57;3.10;;;1.42;;
28836;SDS011;50669;50.982;11.022;2022-10-17T15:00:23;3.45;;;2.03;;
28836;SDS011;50669;50.982;11.022;2022-10-17T15:02:50;3.33;;;1.70;;
28836;SDS011;50669;50.982;11.022;2022-10-17T15:05:17;6.82;;;1.90;;
28836;SDS011;50669;50.982;11.022;2022-10-17T15:07:44;3.72;;;1.80;;
28836;SDS011;50669;50.982;11.022;2022-10-17T15:10:31;4.50;;;2.00;;
28836;SDS011;50669;50.982;11.022;2022-10-17T15:12:57;3.80;;;1.85;;
28836;SDS011;50669;50.982;11.022;2022-10-17T15:15:24;3.28;;;1.70;;
28836;SDS011;50669;50.982;11.022;2022-10-17T15:17:51;2.40;;;1.90;;
28836;SDS011;50669;50.982;11.022;2022-10-17T15:20:17;5.93;;;1.92;;
28836;SDS011;50669;50.982;11.022;2022-10-17T15:22:44;3.33;;;1.95;;
28836;SDS011;50669;50.982;11.022;2022-10-17T15:25:09;5.40;;;2.00;;
28836;SDS011;50669;50.982;11.022;2022-10-17T15:27:39;3.30;;;1.75;;
28836;SDS011;50669;50.982;11.022;2022-10-17T15:30:09;3.08;;;1.90;;
28836;SDS011;50669;50.982;11.022;2022-10-17T15:32:42;3.60;;;2.20;;
28836;SDS011;50669;50.982;11.022;2022-10-17T15:35:10;4.97;;;1.75;;
28836;SDS011;50669;50.982;11.022;2022-10-17T15:37:35;5.57;;;1.88;;
28836;SDS011;50669;50.982;11.022;2022-10-17T15:40:01;6.07;;;2.28;;
28836;SDS011;50669;50.982;11.022;2022-10-17T15:42:30;3.33;;;2.05;;
28836;SDS011;50669;50.982;11.022;2022-10-17T15:44:58;2.72;;;1.58;;
28836;SDS011;50669;50.982;11.022;2022-10-17T15:47:27;5.88;;;1.88;;
28836;SDS011;50669;50.982;11.022;2022-10-17T15:49:57;2.83;;;1.80;;
28836;SDS011;50669;50.982;11.022;2022-10-17T15:52:26;4.63;;;1.95;;
28836;SDS011;50669;50.982;11.022;2022-10-17T15:54:52;3.88;;;2.58;;
28836;SDS011;50669;50.982;11.022;2022-10-17T15:57:30;7.43;;;2.13;;
28836;SDS011;50669;50.982;11.022;2022-10-17T16:00:00;3.72;;;2.10;;
28836;SDS011;50669;50.982;11.022;2022-10-17T16:02:28;7.63;;;2.10;;
28836;SDS011;50669;50.982;11.022;2022-10-17T16:04:54;3.30;;;1.90;;
28836;SDS011;50669;50.982;11.022;2022-10-17T16:07:19;3.45;;;2.00;;
28836;SDS011;50669;50.982;11.022;2022-10-17T16:09:45;2.65;;;1.83;;
28836;SDS011;50669;50.982;11.022;2022-10-17T16:12:12;5.68;;;2.35;;
28836;SDS011;50669;50.982;11.022;2022-10-17T16:14:42;2.70;;;2.00;;
28836;SDS011;50669;50.982;11.022;2022-10-17T16:17:16;5.50;;;2.70;;
28836;SDS011;50669;50.982;11.022;2022-10-17T16:19:41;6.05;;;2.78;;
28836;SDS011;50669;50.982;11.022;2022-10-17T16:22:16;4.43;;;2.40;;
28836;SDS011;50669;50.982;11.022;2022-10-17T16:24:45;4.50;;;2.35;;
28836;SDS011;50669;50.982;11.022;2022-10-17T16:27:10;3.75;;;2.40;;
28836;SDS011;50669;50.982;11.022;2022-10-17T16:29:36;6.60;;;2.00;;
28836;SDS011;50669;50.982;11.022;2022-10-17T16:32:01;3.72;;;2.10;;
28836;SDS011;50669;50.982;11.022;2022-10-17T16:34:27;4.35;;;1.92;;
28836;SDS011;50669;50.982;11.022;2022-10-17T16:36:54;6.50;;;2.20;;
28836;SDS011;50669;50.982;11.022;2022-10-17T16:39:20;7.57;;;2.65;;
28836;SDS011;50669;50.982;11.022;2022-10-17T16:41:45;9.45;;;3.92;;
28836;SDS011;50669;50.982;11.022;2022-10-17T16:44:16;5.10;;;3.67;;
28836;SDS011;50669;50.982;11.022;2022-10-17T16:46:41;4.40;;;2.80;;
28836;SDS011;50669;50.982;11.022;2022-10-17T16:49:10;4.53;;;2.72;;
28836;SDS011;50669;50.982;11.022;2022-10-17T16:51:39;3.72;;;2.30;;
28836;SDS011;50669;50.982;11.022;2022-10-17T16:54:04;5.80;;;2.40;;
28836;SDS011;50669;50.982;11.022;2022-10-17T16:56:32;5.55;;;2.67;;
28836;SDS011;50669;50.982;11.022;2022-10-17T16:58:58;6.78;;;2.17;;
28836;SDS011;50669;50.982;11.022;2022-10-17T17:01:27;4.00;;;2.70;;
28836;SDS011;50669;50.982;11.022;2022-10-17T17:03:53;3.47;;;2.08;;
28836;SDS011;50669;50.982;11.022;2022-10-17T17:06:26;2.33;;;2.05;;
28836;SDS011;50669;50.982;11.022;2022-10-17T17:08:55;4.78;;;2.60;;
28836;SDS011;50669;50.982;11.022;2022-10-17T17:11:22;6.18;;;2.42;;
28836;SDS011;50669;50.982;11.022;2022-10-17T17:13:49;5.82;;;2.30;;
28836;SDS011;50669;50.982;11.022;2022-10-17T17:16:20;4.88;;;2.38;;
28836;SDS011;50669;50.982;11.022;2022-10-17T17:18:47;4.60;;;2.35;;
28836;SDS011;50669;50.982;11.022;2022-10-17T17:21:17;6.80;;;2.85;;
28836;SDS011;50669;50.982;11.022;2022-10-17T17:23:43;3.00;;;2.33;;
28836;SDS011;50669;50.982;11.022;2022-10-17T17:26:10;6.05;;;4.00;;
28836;SDS011;50669;50.982;11.022;2022-10-17T17:28:43;3.58;;;2.70;;
28836;SDS011;50669;50.982;11.022;2022-10-17T17:31:10;4.72;;;2.58;;